createdAt,value
2022-07-28T00:01:50.207Z,67.88
2022-07-28T00:04:18.259Z,68.33
2022-07-28T00:06:46.319Z,68.14
2022-07-28T00:09:14.594Z,68.21
2022-07-28T00:11:54.425Z,68.48
2022-07-28T00:14:24.355Z,68.43
2022-07-28T00:16:52.659Z,68.28
2022-07-28T00:19:20.835Z,68.31
2022-07-28T00:21:48.920Z,68.45
2022-07-28T00:24:17.342Z,68.62
2022-07-28T00:26:46.785Z,68.55
2022-07-28T00:29:15.243Z,68.67
2022-07-28T00:31:43.433Z,68.58
2022-07-28T00:34:12.595Z,68.64
2022-07-28T00:36:41.106Z,68.72
2022-07-28T00:39:09.390Z,68.73
2022-07-28T00:41:37.515Z,68.70
2022-07-28T00:44:08.023Z,68.64
2022-07-28T00:46:36.971Z,68.74
2022-07-28T00:49:05.949Z,68.94
2022-07-28T00:51:34.430Z,69.31
2022-07-28T00:54:04.519Z,69.26
2022-07-28T00:56:34.672Z,69.39
2022-07-28T00:59:02.697Z,69.55
2022-07-28T01:01:30.726Z,69.92
2022-07-28T01:04:02.347Z,70.16
2022-07-28T01:07:03.424Z,70.45
2022-07-28T01:09:50.039Z,70.72
2022-07-28T01:12:57.033Z,71.17
2022-07-28T01:15:33.574Z,71.71
2022-07-28T01:18:17.226Z,72.26
2022-07-28T01:20:55.559Z,72.23
2022-07-28T01:23:32.257Z,72.37
2022-07-28T01:26:24.336Z,72.52
2022-07-28T01:29:16.522Z,72.95
2022-07-28T01:32:08.755Z,73.22
2022-07-28T01:34:52.309Z,73.68
2022-07-28T01:37:25.856Z,74.04
2022-07-28T01:39:59.166Z,74.18
2022-07-28T01:42:37.262Z,74.39
2022-07-28T01:45:08.340Z,74.64
2022-07-28T01:47:37.731Z,74.68
2022-07-28T01:50:10.471Z,74.93
2022-07-28T01:52:42.050Z,75.41
2022-07-28T01:55:14.031Z,76.00
2022-07-28T01:57:44.475Z,76.23
2022-07-28T02:00:14.339Z,76.29
2022-07-28T02:02:46.286Z,76.62
2022-07-28T02:05:19.285Z,76.70
2022-07-28T02:07:51.631Z,76.62
2022-07-28T02:10:22.074Z,77.01
2022-07-28T02:12:53.328Z,77.26
2022-07-28T02:15:22.545Z,77.63
2022-07-28T02:17:53.756Z,78.08
2022-07-28T02:20:23.630Z,78.25
2022-07-28T02:22:54.460Z,78.43
2022-07-28T02:25:22.704Z,78.48
2022-07-28T02:28:05.611Z,78.67
2022-07-28T02:30:48.160Z,79.05
2022-07-28T02:33:57.963Z,79.40
2022-07-28T02:36:16.199Z,79.59
2022-07-28T02:38:51.967Z,79.71
2022-07-28T02:41:27.509Z,79.59
2022-07-28T02:44:00.158Z,79.71
2022-07-28T02:46:38.434Z,80.01
2022-07-28T02:49:12.501Z,80.23
2022-07-28T02:51:43.416Z,80.56
2022-07-28T02:54:13.710Z,80.86
2022-07-28T02:56:42.457Z,80.93
2022-07-28T02:59:23.735Z,81.17
2022-07-28T03:01:53.132Z,81.36
2022-07-28T03:04:43.515Z,81.50
2022-07-28T03:07:11.873Z,81.69
2022-07-28T03:09:42.576Z,81.81
2022-07-28T03:12:11.667Z,81.91
2022-07-28T03:14:40.250Z,82.15
2022-07-28T03:17:09.457Z,82.14
2022-07-28T03:19:37.636Z,82.16
2022-07-28T03:22:10.370Z,82.42
2022-07-28T03:24:44.584Z,82.74
2022-07-28T03:27:33.295Z,82.81
2022-07-28T03:30:07.259Z,82.93
2022-07-28T03:32:38.767Z,83.00
2022-07-28T03:35:07.186Z,83.37
2022-07-28T03:38:06.399Z,83.41
2022-07-28T03:40:37.954Z,83.15
2022-07-28T03:43:08.918Z,83.06
2022-07-28T03:45:41.081Z,82.92
2022-07-28T03:48:10.404Z,82.81
2022-07-28T03:50:38.475Z,82.81
2022-07-28T03:53:14.077Z,82.71
2022-07-28T03:55:42.156Z,82.67
2022-07-28T03:58:10.116Z,82.59
2022-07-28T04:00:38.179Z,82.58
2022-07-28T04:03:42.322Z,82.72
2022-07-28T04:05:58.028Z,82.56
2022-07-28T04:08:26.038Z,82.55
2022-07-28T04:10:53.991Z,82.52
2022-07-28T04:13:22.005Z,82.47
2022-07-28T04:15:50.037Z,82.40
2022-07-28T04:18:18.821Z,82.33
2022-07-28T04:20:46.937Z,82.28
2022-07-28T04:23:14.799Z,82.21
2022-07-28T04:25:42.906Z,82.12
2022-07-28T04:28:10.970Z,81.97
2022-07-28T04:30:43.896Z,81.74
2022-07-28T04:33:13.032Z,81.58
2022-07-28T04:35:41.055Z,81.48
2022-07-28T04:38:09.183Z,81.39
2022-07-28T04:40:37.274Z,81.33
2022-07-28T04:43:06.217Z,81.19
2022-07-28T04:45:34.572Z,81.08
2022-07-28T04:48:02.891Z,81.03
2022-07-28T04:50:30.967Z,80.97
2022-07-28T04:52:59.529Z,80.91
2022-07-28T04:55:27.751Z,80.91
2022-07-28T04:57:55.851Z,80.91
2022-07-28T05:00:24.018Z,80.85
2022-07-28T05:05:44.076Z,80.54
2022-07-28T05:08:17.082Z,79.68
2022-07-28T05:10:46.001Z,79.23
2022-07-28T05:13:13.927Z,78.73
2022-07-28T05:15:49.784Z,77.46
2022-07-28T05:18:17.839Z,75.07
2022-07-28T05:20:45.758Z,72.69
2022-07-28T05:23:13.672Z,70.62
2022-07-28T05:25:41.591Z,68.96
2022-07-28T05:28:09.592Z,66.36
2022-07-28T05:30:38.565Z,65.90
2022-07-28T05:33:06.449Z,66.34
2022-07-28T05:35:34.452Z,66.62
2022-07-28T05:38:03.670Z,65.40
2022-07-28T05:40:33.645Z,64.26
2022-07-28T05:43:01.587Z,63.53
2022-07-28T05:45:29.688Z,63.33
2022-07-28T05:47:57.593Z,63.22
2022-07-28T05:50:26.695Z,61.91
2022-07-28T05:52:54.778Z,59.71
2022-07-28T05:55:22.943Z,58.08
2022-07-28T05:57:51.329Z,54.96
2022-07-28T06:00:21.247Z,50.22
2022-07-28T06:02:50.697Z,48.93
2022-07-28T06:05:21.606Z,45.61
2022-07-28T06:07:51.804Z,45.53
2022-07-28T06:10:25.372Z,45.36
2022-07-28T06:12:55.346Z,44.52
2022-07-28T06:15:25.919Z,44.84
2022-07-28T06:17:58.206Z,41.54
2022-07-28T06:20:28.874Z,40.18
2022-07-28T06:22:56.851Z,39.48
2022-07-28T06:25:27.736Z,39.83
2022-07-28T06:27:57.817Z,38.76
2022-07-28T06:30:27.432Z,37.77
2022-07-28T06:32:56.765Z,37.32
2022-07-28T06:35:27.944Z,37.58
2022-07-28T06:37:56.071Z,38.40
2022-07-28T06:40:24.721Z,38.85
2022-07-28T06:42:52.697Z,37.75
2022-07-28T06:45:21.806Z,38.07
2022-07-28T06:47:50.946Z,37.80
2022-07-28T06:50:26.510Z,38.14
2022-07-28T06:52:59.106Z,36.77
2022-07-28T06:55:31.325Z,37.27
2022-07-28T06:58:06.371Z,39.05
2022-07-28T07:00:34.604Z,40.00
2022-07-28T07:03:09.616Z,38.04
2022-07-28T07:05:40.662Z,37.81
2022-07-28T07:08:08.682Z,37.03
2022-07-28T07:10:36.670Z,37.03
2022-07-28T07:13:05.059Z,37.71
2022-07-28T07:15:34.959Z,38.47
2022-07-28T07:18:07.709Z,38.68
2022-07-28T07:20:36.480Z,37.38
2022-07-28T07:23:07.619Z,37.75
2022-07-28T07:25:41.533Z,38.05
2022-07-28T07:28:11.967Z,36.85
2022-07-28T07:30:40.316Z,36.56
2022-07-28T07:33:10.906Z,37.18
2022-07-28T07:35:39.101Z,37.10
2022-07-28T07:38:07.466Z,36.15
2022-07-28T07:40:35.750Z,36.50
2022-07-28T07:43:04.700Z,35.83
2022-07-28T07:45:34.517Z,35.25
2022-07-28T07:48:03.909Z,35.47
2022-07-28T07:50:38.906Z,35.96
2022-07-28T07:53:07.156Z,36.28
2022-07-28T07:55:37.961Z,34.79
2022-07-28T07:58:06.546Z,33.67
2022-07-28T08:00:34.675Z,34.47
2022-07-28T08:03:02.835Z,35.53
2022-07-28T08:05:35.511Z,35.70
2022-07-28T08:08:05.687Z,36.50
2022-07-28T08:10:37.921Z,35.85
2022-07-28T08:13:08.001Z,34.76
2022-07-28T08:15:36.057Z,34.05
2022-07-28T08:18:04.890Z,33.95
2022-07-28T08:20:32.989Z,33.06
2022-07-28T08:23:01.371Z,33.20
2022-07-28T08:25:29.290Z,33.61
2022-07-28T08:27:57.238Z,34.05
2022-07-28T08:30:30.265Z,32.93
2022-07-28T08:33:02.534Z,33.41
2022-07-28T08:35:33.501Z,34.25
2022-07-28T08:38:04.597Z,33.48
2022-07-28T08:40:32.995Z,33.86
2022-07-28T08:43:21.217Z,33.66
2022-07-28T08:45:52.504Z,32.52
2022-07-28T08:48:23.730Z,32.59
2022-07-28T08:50:54.088Z,32.37
2022-07-28T08:53:30.697Z,31.55
2022-07-28T08:56:05.851Z,32.13
2022-07-28T08:58:36.802Z,32.27
2022-07-28T09:01:08.645Z,32.63
2022-07-28T09:03:39.277Z,32.65
2022-07-28T09:06:08.470Z,33.37
2022-07-28T09:08:37.340Z,33.67
2022-07-28T09:11:07.027Z,34.20
2022-07-28T09:13:36.545Z,33.12
2022-07-28T09:16:06.923Z,33.07
2022-07-28T09:18:35.208Z,31.19
2022-07-28T09:21:03.221Z,30.48
2022-07-28T09:23:48.944Z,32.54
2022-07-28T09:26:18.661Z,32.58
2022-07-28T09:28:59.279Z,31.72
2022-07-28T09:31:29.408Z,31.41
2022-07-28T09:34:02.654Z,32.05
2022-07-28T09:36:39.202Z,33.84
2022-07-28T09:39:08.403Z,34.37
2022-07-28T09:41:53.386Z,33.78
2022-07-28T09:44:23.375Z,31.88
2022-07-28T09:46:51.512Z,31.48
2022-07-28T09:49:22.887Z,31.78
2022-07-28T09:52:02.750Z,31.71
2022-07-28T09:54:30.756Z,30.61
2022-07-28T09:56:59.416Z,30.26
2022-07-28T09:59:46.194Z,30.73
2022-07-28T10:02:24.960Z,30.54
2022-07-28T10:04:54.629Z,30.54
2022-07-28T10:07:22.775Z,30.61
2022-07-28T10:10:01.016Z,30.02
2022-07-28T10:12:31.599Z,29.69
2022-07-28T10:15:34.839Z,28.89
2022-07-28T10:18:03.728Z,28.71
2022-07-28T10:20:34.760Z,28.74
2022-07-28T10:23:09.566Z,27.98
2022-07-28T10:25:40.597Z,27.99
2022-07-28T10:28:12.069Z,27.74
2022-07-28T10:30:41.448Z,28.20
2022-07-28T10:33:15.186Z,26.36
2022-07-28T10:35:54.769Z,26.59
2022-07-28T10:38:28.806Z,26.77
2022-07-28T10:40:59.821Z,26.17
2022-07-28T10:43:32.849Z,25.29
2022-07-28T10:46:06.833Z,24.36
2022-07-28T10:48:39.251Z,25.94
2022-07-28T10:51:07.672Z,27.47
2022-07-28T10:53:39.512Z,27.78
2022-07-28T10:56:18.869Z,26.08
2022-07-28T10:59:04.696Z,26.34
2022-07-28T11:01:51.913Z,26.98
2022-07-28T11:04:52.023Z,27.42
2022-07-28T11:07:21.177Z,26.27
2022-07-28T11:09:50.135Z,25.82
2022-07-28T11:12:48.885Z,26.09
2022-07-28T11:15:38.101Z,26.48
2022-07-28T11:18:10.840Z,27.73
2022-07-28T11:20:51.625Z,27.93
2022-07-28T11:23:58.369Z,27.14
2022-07-28T11:26:31.102Z,24.87
2022-07-28T11:29:06.016Z,24.35
2022-07-28T11:31:48.784Z,23.83
2022-07-28T11:34:23.707Z,23.74
2022-07-28T11:37:01.621Z,23.96
2022-07-28T11:39:43.867Z,23.94
2022-07-28T11:42:29.481Z,24.47
2022-07-28T11:45:23.125Z,25.73
2022-07-28T11:48:17.103Z,26.13
2022-07-28T11:51:14.328Z,25.56
2022-07-28T11:53:48.494Z,24.69
2022-07-28T11:56:24.472Z,25.79
2022-07-28T11:59:07.230Z,26.88
2022-07-28T12:01:37.094Z,24.70
2022-07-28T12:04:19.099Z,24.44
2022-07-28T12:06:51.660Z,23.03
2022-07-28T12:09:25.617Z,23.26
2022-07-28T12:11:56.098Z,23.47
2022-07-28T12:14:24.401Z,22.48
2022-07-28T12:16:53.263Z,22.00
2022-07-28T12:19:21.879Z,22.93
2022-07-28T12:21:55.354Z,22.94
2022-07-28T12:24:29.617Z,23.23
2022-07-28T12:27:00.564Z,23.13
2022-07-28T12:29:32.219Z,22.37
2022-07-28T12:32:06.722Z,21.47
2022-07-28T12:34:35.698Z,22.08
2022-07-28T12:37:12.592Z,22.08
2022-07-28T12:39:43.023Z,21.54
2022-07-28T12:42:12.864Z,20.37
2022-07-28T12:44:44.081Z,20.53
2022-07-28T12:47:14.391Z,20.89
2022-07-28T12:49:44.829Z,22.52
2022-07-28T12:52:22.311Z,21.88
2022-07-28T12:54:55.226Z,21.16
2022-07-28T12:57:50.538Z,21.35
2022-07-28T13:00:31.906Z,21.65
2022-07-28T13:03:19.581Z,22.69
2022-07-28T13:06:03.425Z,23.43
2022-07-28T13:08:44.008Z,22.83
2022-07-28T13:14:12.946Z,22.65
2022-07-28T13:16:41.206Z,23.56
2022-07-28T13:19:21.538Z,24.11
2022-07-28T13:22:01.690Z,24.69
2022-07-28T13:24:31.593Z,24.79
2022-07-28T13:27:01.754Z,24.10
2022-07-28T13:29:34.889Z,22.57
2022-07-28T13:32:03.017Z,22.95
2022-07-28T13:34:31.110Z,23.07
2022-07-28T13:36:59.226Z,23.56
2022-07-28T13:39:27.995Z,23.95
2022-07-28T13:41:58.178Z,23.01
2022-07-28T13:44:28.878Z,21.98
2022-07-28T13:46:59.736Z,22.93
2022-07-28T13:49:33.297Z,23.52
2022-07-28T13:52:02.416Z,22.43
2022-07-28T13:54:30.417Z,22.66
2022-07-28T13:57:14.216Z,23.26
2022-07-28T13:59:43.829Z,23.41
2022-07-28T14:02:15.159Z,23.86
2022-07-28T14:04:49.002Z,23.24
2022-07-28T14:07:20.826Z,23.17
2022-07-28T14:09:52.805Z,23.18
2022-07-28T14:12:22.490Z,23.58
2022-07-28T14:14:53.084Z,23.36
2022-07-28T14:17:43.718Z,22.91
2022-07-28T14:20:12.302Z,23.82
2022-07-28T14:22:40.398Z,24.03
2022-07-28T14:25:09.000Z,23.22
2022-07-28T14:27:38.031Z,24.44
2022-07-28T14:30:07.047Z,24.05
2022-07-28T14:32:38.758Z,23.90
2022-07-28T14:35:07.411Z,23.98
2022-07-28T14:37:55.031Z,23.30
2022-07-28T14:40:24.187Z,22.75
2022-07-28T14:42:52.099Z,23.61
2022-07-28T14:45:20.045Z,22.61
2022-07-28T14:47:47.966Z,22.24
2022-07-28T14:50:15.951Z,23.45
2022-07-28T14:52:45.053Z,24.97
2022-07-28T14:55:13.834Z,26.40
2022-07-28T14:57:50.231Z,26.87
2022-07-28T15:00:22.206Z,27.12
2022-07-28T15:02:51.953Z,26.94
2022-07-28T15:05:21.111Z,26.77
2022-07-28T15:07:52.357Z,26.73
2022-07-28T15:10:21.548Z,26.31
2022-07-28T15:12:50.919Z,26.04
2022-07-28T15:15:21.388Z,25.93
2022-07-28T15:17:49.241Z,25.57
2022-07-28T15:20:17.227Z,25.85
2022-07-28T15:22:45.116Z,26.69
2022-07-28T15:25:13.099Z,26.19
2022-07-28T15:27:45.625Z,23.61
2022-07-28T15:30:14.395Z,21.96
2022-07-28T15:32:54.591Z,21.28
2022-07-28T15:35:26.195Z,20.93
2022-07-28T15:37:55.068Z,19.59
2022-07-28T15:40:23.490Z,20.10
2022-07-28T15:42:53.232Z,20.43
2022-07-28T15:45:21.197Z,22.04
2022-07-28T15:47:49.222Z,22.46
2022-07-28T15:50:17.335Z,23.11
2022-07-28T15:52:45.396Z,24.35
2022-07-28T15:55:13.436Z,25.62
2022-07-28T15:57:41.302Z,27.06
2022-07-28T16:00:09.871Z,28.17
2022-07-28T16:02:37.775Z,28.60
2022-07-28T16:05:06.089Z,29.51
2022-07-28T16:07:35.361Z,28.84
2022-07-28T16:10:04.711Z,29.56
2022-07-28T16:12:33.646Z,30.17
2022-07-28T16:15:02.029Z,30.04
2022-07-28T16:17:30.022Z,29.83
2022-07-28T16:20:02.426Z,30.17
2022-07-28T16:22:30.783Z,31.46
2022-07-28T16:24:58.662Z,32.34
2022-07-28T16:27:26.540Z,31.16
2022-07-28T16:29:54.793Z,32.25
2022-07-28T16:32:22.802Z,33.87
2022-07-28T16:34:54.964Z,33.92
2022-07-28T16:37:22.961Z,34.35
2022-07-28T16:39:51.041Z,34.81
2022-07-28T16:42:19.036Z,34.41
2022-07-28T16:44:47.575Z,34.73
2022-07-28T16:47:16.009Z,35.02
2022-07-28T16:49:46.199Z,33.27
2022-07-28T16:52:15.519Z,34.21
2022-07-28T16:54:43.767Z,33.87
2022-07-28T16:57:12.557Z,32.76
2022-07-28T16:59:48.732Z,34.23
2022-07-28T17:02:19.441Z,34.88
2022-07-28T17:04:47.889Z,35.54
2022-07-28T17:07:15.898Z,35.52
2022-07-28T17:09:44.645Z,35.16
2022-07-28T17:12:13.470Z,35.98
2022-07-28T17:14:41.438Z,37.40
2022-07-28T17:17:09.601Z,37.15
2022-07-28T17:19:41.996Z,37.37
2022-07-28T17:22:15.264Z,38.04
2022-07-28T17:24:43.252Z,38.45
2022-07-28T17:29:59.066Z,39.67
2022-07-28T17:32:26.976Z,39.81
2022-07-28T17:34:55.770Z,40.16
2022-07-28T17:37:23.605Z,40.72
2022-07-28T17:39:51.741Z,42.02
2022-07-28T17:42:19.839Z,42.55
2022-07-28T17:44:48.883Z,43.00
2022-07-28T17:47:17.105Z,43.64
2022-07-28T17:49:45.726Z,44.49
2022-07-28T17:52:13.711Z,44.95
2022-07-28T17:55:00.718Z,45.11
2022-07-28T17:57:31.018Z,45.87
2022-07-28T18:00:06.864Z,45.99
2022-07-28T18:02:34.780Z,46.20
2022-07-28T18:05:02.704Z,46.49
2022-07-28T18:07:30.762Z,47.10
2022-07-28T18:10:24.532Z,48.01
2022-07-28T18:12:52.948Z,48.10
2022-07-28T18:15:20.854Z,48.74
2022-07-28T18:17:55.230Z,49.50
2022-07-28T18:20:24.483Z,50.08
2022-07-28T18:22:52.477Z,50.69
2022-07-28T18:25:21.355Z,50.74
2022-07-28T18:27:49.426Z,51.22
2022-07-28T18:30:18.215Z,51.28
2022-07-28T18:32:46.181Z,51.49
2022-07-28T18:35:14.945Z,51.40
2022-07-28T18:37:45.962Z,51.30
2022-07-28T18:40:16.403Z,52.20
2022-07-28T18:42:46.452Z,52.63
2022-07-28T18:45:15.503Z,53.19
2022-07-28T18:47:46.209Z,53.96
2022-07-28T18:50:30.462Z,54.37
2022-07-28T18:53:00.090Z,54.76
2022-07-28T18:55:28.147Z,54.92
2022-07-28T18:57:56.378Z,56.01
2022-07-28T19:00:24.432Z,56.34
2022-07-28T19:02:52.864Z,56.71
2022-07-28T19:05:20.910Z,57.51
2022-07-28T19:07:48.877Z,58.18
2022-07-28T19:10:16.821Z,58.20
2022-07-28T19:12:47.088Z,58.15
2022-07-28T19:15:15.051Z,58.14
2022-07-28T19:17:42.976Z,58.81
2022-07-28T19:20:12.122Z,58.85
2022-07-28T19:22:40.569Z,59.10
2022-07-28T19:25:09.031Z,58.72
2022-07-28T19:27:37.426Z,59.49
2022-07-28T19:30:07.582Z,60.07
2022-07-28T19:32:35.859Z,60.20
2022-07-28T19:35:04.286Z,60.40
2022-07-28T19:37:32.463Z,60.47
2022-07-28T19:40:00.254Z,60.33
2022-07-28T19:42:30.524Z,60.63
2022-07-28T19:44:58.466Z,60.79
2022-07-28T19:47:26.438Z,61.20
2022-07-28T19:49:54.346Z,61.63
2022-07-28T19:52:24.157Z,61.96
2022-07-28T19:54:52.876Z,62.33
2022-07-28T19:57:23.298Z,62.17
2022-07-28T19:59:51.164Z,62.14
2022-07-28T20:02:19.175Z,62.34
2022-07-28T20:04:47.176Z,62.66
2022-07-28T20:07:15.309Z,63.14
2022-07-28T20:09:43.218Z,63.88
2022-07-28T20:12:11.256Z,64.73
2022-07-28T20:14:39.186Z,65.14
2022-07-28T20:17:07.494Z,65.20
2022-07-28T20:19:35.527Z,65.40
2022-07-28T20:22:03.500Z,65.43
2022-07-28T20:24:31.433Z,65.41
2022-07-28T20:27:01.207Z,64.99
2022-07-28T20:29:29.086Z,64.79
2022-07-28T20:31:56.978Z,65.29
2022-07-28T20:34:24.898Z,66.09
2022-07-28T20:36:54.506Z,66.46
2022-07-28T20:39:43.749Z,66.31
2022-07-28T20:42:10.847Z,66.75
2022-07-28T20:44:38.969Z,67.15
2022-07-28T20:47:07.053Z,67.45
2022-07-28T20:49:34.976Z,67.46
2022-07-28T20:52:03.671Z,67.47
2022-07-28T20:54:32.476Z,67.63
2022-07-28T20:57:00.555Z,67.70
2022-07-28T20:59:28.474Z,67.99
2022-07-28T21:01:56.908Z,68.14
2022-07-28T21:04:26.663Z,68.34
2022-07-28T21:07:01.740Z,68.67
2022-07-28T21:09:30.308Z,69.08
2022-07-28T21:11:58.215Z,69.49
2022-07-28T21:14:26.204Z,69.60
2022-07-28T21:16:55.114Z,69.38
2022-07-28T21:19:23.081Z,69.33
2022-07-28T21:21:51.270Z,69.52
2022-07-28T21:24:19.403Z,69.91
2022-07-28T21:26:49.886Z,70.30
2022-07-28T21:32:04.100Z,71.25
2022-07-28T21:34:34.989Z,71.72
2022-07-28T21:37:06.915Z,71.74
2022-07-28T21:39:36.045Z,71.77
2022-07-28T21:42:07.780Z,72.09
2022-07-28T21:44:37.607Z,72.13
2022-07-28T21:47:05.912Z,72.25
2022-07-28T21:49:34.074Z,72.46
2022-07-28T21:52:02.091Z,72.88
2022-07-28T21:54:30.305Z,73.04
2022-07-28T21:56:58.306Z,73.19
2022-07-28T21:59:26.300Z,73.74
2022-07-28T22:01:54.233Z,73.72
2022-07-28T22:04:22.389Z,73.71
2022-07-28T22:06:50.839Z,73.60
2022-07-28T22:09:18.746Z,73.35
2022-07-28T22:11:46.590Z,73.41
2022-07-28T22:14:14.750Z,73.65
2022-07-28T22:16:42.885Z,73.74
2022-07-28T22:19:12.358Z,73.56
2022-07-28T22:21:40.275Z,73.68
2022-07-28T22:24:08.916Z,73.69
2022-07-28T22:26:37.061Z,73.94
2022-07-28T22:29:05.286Z,73.98
2022-07-28T22:31:33.273Z,73.78
2022-07-28T22:34:01.408Z,73.96
2022-07-28T22:36:29.416Z,74.18
2022-07-28T22:38:57.412Z,74.17
2022-07-28T22:41:25.579Z,74.22
2022-07-28T22:43:54.686Z,74.17
2022-07-28T22:46:22.808Z,74.60
2022-07-28T22:48:51.040Z,74.49
2022-07-28T22:51:19.089Z,74.68
2022-07-28T22:53:46.980Z,74.91
2022-07-28T22:56:15.009Z,75.12
2022-07-28T22:58:43.180Z,75.18
2022-07-28T23:01:11.370Z,75.13
2022-07-28T23:09:26.981Z,75.14
2022-07-28T23:11:55.599Z,75.30
2022-07-28T23:14:24.333Z,75.39
2022-07-28T23:16:52.127Z,75.54
2022-07-28T23:19:20.042Z,75.87
2022-07-28T23:21:48.036Z,76.08
2022-07-28T23:24:16.462Z,76.17
2022-07-28T23:26:44.989Z,76.15
2022-07-28T23:29:12.946Z,76.46
2022-07-28T23:31:40.978Z,76.77
2022-07-28T23:34:09.157Z,76.66
2022-07-28T23:36:37.104Z,76.61
2022-07-28T23:39:05.021Z,76.59
2022-07-28T23:41:32.943Z,76.48
2022-07-28T23:44:00.857Z,76.58
2022-07-28T23:46:28.905Z,76.66
2022-07-28T23:48:56.847Z,77.31
2022-07-28T23:51:46.894Z,77.28
2022-07-28T23:54:14.581Z,77.62
2022-07-28T23:56:43.612Z,77.65
2022-07-28T23:59:13.992Z,77.55
